createdAt,value
2019-04-04T00:00:59.537Z,11.30
2019-04-04T00:06:03.276Z,11.50
2019-04-04T00:11:06.969Z,11.00
2019-04-04T00:16:16.089Z,11.10
2019-04-04T00:21:22.854Z,11.20
2019-04-04T00:26:26.457Z,11.20
2019-04-04T00:31:30.211Z,11.00
2019-04-04T00:36:34.681Z,11.00
2019-04-04T00:41:38.548Z,11.20
2019-04-04T00:46:42.269Z,11.20
2019-04-04T00:51:46.012Z,11.20
2019-04-04T00:56:49.751Z,11.00
2019-04-04T01:01:56.685Z,11.00
2019-04-04T01:06:58.955Z,10.60
2019-04-04T01:12:02.666Z,10.90
2019-04-04T01:17:06.408Z,10.80
2019-04-04T01:22:10.131Z,10.60
2019-04-04T01:27:15.515Z,10.60
2019-04-04T01:32:19.280Z,10.60
2019-04-04T01:37:23.020Z,10.60
2019-04-04T01:42:26.615Z,10.60
2019-04-04T01:47:30.255Z,10.60
2019-04-04T01:52:33.902Z,10.60
2019-04-04T01:57:38.918Z,10.60
2019-04-04T02:02:42.912Z,10.60
2019-04-04T02:07:48.100Z,10.60
2019-04-04T02:13:03.849Z,10.60
2019-04-04T02:18:07.560Z,10.60
2019-04-04T02:23:11.226Z,10.60
2019-04-04T02:28:14.814Z,10.50
2019-04-04T02:33:21.107Z,10.50
2019-04-04T02:38:42.624Z,10.50
2019-04-04T02:43:46.215Z,10.50
2019-04-04T02:48:56.272Z,10.50
2019-04-04T02:54:02.084Z,10.50
2019-04-04T02:59:05.801Z,10.20
2019-04-04T03:04:13.598Z,10.40
2019-04-04T03:09:23.775Z,10.10
2019-04-04T03:14:27.347Z,10.30
2019-04-04T03:19:30.967Z,10.40
2019-04-04T03:24:40.287Z,10.10
2019-04-04T03:29:48.774Z,10.10
2019-04-04T03:34:52.481Z,10.10
2019-04-04T03:39:56.045Z,10.30
2019-04-04T03:44:59.660Z,10.10
2019-04-04T03:50:04.175Z,9.80
2019-04-04T03:55:07.985Z,9.70
2019-04-04T04:00:14.630Z,9.70
2019-04-04T04:05:40.640Z,9.60
2019-04-04T04:10:51.200Z,9.60
2019-04-04T04:15:54.788Z,9.60
2019-04-04T04:20:58.393Z,9.90
2019-04-04T04:26:01.998Z,9.90
2019-04-04T04:31:08.689Z,9.90
2019-04-04T04:36:17.754Z,9.80
2019-04-04T04:41:21.475Z,9.70
2019-04-04T04:46:25.137Z,10.10
2019-04-04T04:51:28.720Z,10.10
2019-04-04T04:56:32.302Z,9.80
2019-04-04T05:01:35.883Z,10.20
2019-04-04T05:06:39.465Z,10.40
2019-04-04T05:11:43.203Z,10.80
2019-04-04T05:16:46.795Z,11.40
2019-04-04T05:21:50.355Z,11.80
2019-04-04T05:26:53.972Z,12.60
2019-04-04T05:32:00.661Z,13.10
2019-04-04T05:37:05.134Z,12.40
2019-04-04T05:42:09.631Z,12.20
2019-04-04T05:47:13.217Z,12.50
2019-04-04T05:52:16.811Z,13.00
2019-04-04T05:57:20.792Z,12.60
2019-04-04T06:02:24.444Z,12.90
2019-04-04T06:07:30.804Z,12.70
2019-04-04T06:12:58.059Z,13.50
2019-04-04T06:18:01.632Z,13.10
2019-04-04T06:23:14.205Z,12.60
2019-04-04T06:28:19.506Z,13.00
2019-04-04T06:33:23.117Z,13.20
2019-04-04T06:38:26.672Z,13.40
2019-04-04T06:43:33.106Z,13.50
2019-04-04T06:48:36.703Z,14.20
2019-04-04T06:53:40.289Z,14.00
2019-04-04T06:58:43.966Z,13.90
2019-04-04T07:03:47.533Z,13.90
2019-04-04T07:08:51.140Z,14.90
2019-04-04T07:13:54.791Z,13.80
2019-04-04T07:18:58.448Z,14.40
2019-04-04T07:24:02.155Z,15.20
2019-04-04T07:29:11.608Z,14.10
2019-04-04T07:34:16.076Z,14.70
2019-04-04T07:39:19.672Z,14.10
2019-04-04T07:44:23.907Z,14.20
2019-04-04T07:49:27.610Z,14.50
2019-04-04T07:54:32.087Z,14.50
2019-04-04T07:59:35.845Z,14.90
2019-04-04T08:04:39.395Z,15.00
2019-04-04T08:09:42.996Z,15.20
2019-04-04T08:14:46.672Z,15.40
2019-04-04T08:19:59.703Z,15.70
2019-04-04T08:24:55.544Z,15.70
2019-04-04T08:29:59.145Z,15.80
2019-04-04T08:35:02.789Z,16.00
2019-04-04T08:40:07.683Z,15.90
2019-04-04T08:45:11.393Z,16.40
2019-04-04T08:50:15.867Z,16.50
2019-04-04T08:55:19.442Z,16.70
2019-04-04T09:00:23.585Z,16.60
2019-04-04T09:05:27.164Z,16.10
2019-04-04T09:10:30.820Z,16.60
2019-04-04T09:15:34.465Z,16.70
2019-04-04T09:20:38.221Z,16.40
2019-04-04T09:25:41.786Z,16.50
2019-04-04T09:30:46.385Z,17.00
2019-04-04T09:35:49.960Z,17.10
2019-04-04T09:40:54.609Z,17.10
2019-04-04T09:45:58.273Z,17.40
2019-04-04T09:51:01.895Z,17.40
2019-04-04T09:56:05.608Z,17.20
2019-04-04T10:01:09.329Z,17.20
2019-04-04T10:06:12.907Z,17.30
2019-04-04T10:11:16.488Z,17.70
2019-04-04T10:16:20.102Z,17.40
2019-04-04T10:21:23.711Z,17.40
2019-04-04T10:26:27.355Z,17.90
2019-04-04T10:31:31.048Z,18.10
2019-04-04T10:36:34.687Z,18.10
2019-04-04T10:41:38.274Z,18.40
2019-04-04T10:46:41.896Z,18.30
2019-04-04T10:51:45.595Z,17.90
2019-04-04T10:56:49.178Z,18.00
2019-04-04T11:01:52.840Z,18.40
2019-04-04T11:06:56.413Z,18.40
2019-04-04T11:12:00.062Z,18.70
2019-04-04T11:17:03.734Z,19.10
2019-04-04T11:22:07.364Z,18.80
2019-04-04T11:27:10.961Z,18.40
2019-04-04T11:32:14.657Z,18.30
2019-04-04T11:37:18.349Z,18.50
2019-04-04T11:42:22.049Z,18.50
2019-04-04T11:47:25.728Z,17.90
2019-04-04T11:52:29.835Z,18.40
2019-04-04T11:57:33.506Z,18.80
2019-04-04T12:02:37.071Z,18.90
2019-04-04T12:07:40.745Z,18.80
2019-04-04T12:12:44.375Z,18.90
2019-04-04T12:17:47.958Z,18.50
2019-04-04T12:22:51.651Z,18.70
2019-04-04T12:27:55.253Z,18.90
2019-04-04T12:32:58.871Z,18.70
2019-04-04T12:38:02.474Z,18.20
2019-04-04T12:43:06.148Z,18.80
2019-04-04T12:48:09.939Z,18.90
2019-04-04T12:53:13.552Z,18.20
2019-04-04T12:58:17.236Z,18.30
2019-04-04T13:03:22.466Z,17.80
2019-04-04T13:08:26.181Z,17.40
2019-04-04T13:13:29.783Z,17.50
2019-04-04T13:18:33.396Z,17.40
2019-04-04T13:23:37.035Z,17.30
2019-04-04T13:28:40.699Z,16.80
2019-04-04T13:33:44.306Z,16.70
2019-04-04T13:38:47.909Z,16.80
2019-04-04T13:43:53.423Z,16.80
2019-04-04T13:48:56.783Z,16.70
2019-04-04T13:54:00.427Z,16.30
2019-04-04T13:59:05.915Z,16.60
2019-04-04T14:04:09.713Z,16.60
2019-04-04T14:09:13.307Z,16.70
2019-04-04T14:14:16.984Z,16.60
2019-04-04T14:19:20.592Z,16.60
2019-04-04T14:24:24.175Z,16.50
2019-04-04T14:29:28.159Z,16.50
2019-04-04T14:34:31.771Z,16.60
2019-04-04T14:39:35.363Z,16.40
2019-04-04T14:44:39.000Z,16.30
2019-04-04T14:49:45.028Z,16.20
2019-04-04T14:54:47.858Z,16.10
2019-04-04T14:59:51.546Z,16.10
2019-04-04T15:04:55.183Z,15.90
2019-04-04T15:09:58.756Z,15.90
2019-04-04T15:15:02.646Z,15.80
2019-04-04T15:20:07.293Z,15.80
2019-04-04T15:25:11.123Z,15.70
2019-04-04T15:30:15.125Z,15.60
2019-04-04T15:35:18.819Z,15.50
2019-04-04T15:40:22.456Z,15.50
2019-04-04T15:45:26.138Z,15.60
2019-04-04T15:50:29.738Z,15.60
2019-04-04T15:55:33.317Z,15.60
2019-04-04T16:00:37.476Z,15.60
2019-04-04T16:05:41.081Z,15.60
2019-04-04T16:10:44.855Z,15.60
2019-04-04T16:15:48.407Z,15.50
2019-04-04T16:20:52.156Z,15.60
2019-04-04T16:25:55.847Z,15.60
2019-04-04T16:31:00.272Z,15.60
2019-04-04T16:36:05.441Z,15.60
2019-04-04T16:41:09.473Z,15.50
2019-04-04T16:46:13.084Z,15.40
2019-04-04T16:51:16.725Z,15.30
2019-04-04T16:56:20.382Z,15.20
2019-04-04T17:01:24.060Z,15.10
2019-04-04T17:06:27.745Z,15.20
2019-04-04T17:11:31.343Z,15.20
2019-04-04T17:16:35.084Z,15.00
2019-04-04T17:21:38.841Z,15.00
2019-04-04T17:26:42.655Z,14.80
2019-04-04T17:31:46.825Z,14.70
2019-04-04T17:36:50.660Z,14.60
2019-04-04T17:41:54.320Z,14.60
2019-04-04T17:46:58.006Z,14.50
2019-04-04T17:52:01.985Z,14.40
2019-04-04T17:57:05.755Z,14.50
2019-04-04T18:02:09.675Z,14.40
2019-04-04T18:07:13.353Z,14.40
2019-04-04T18:12:17.100Z,14.30
2019-04-04T18:17:20.847Z,14.30
2019-04-04T18:22:24.562Z,14.30
2019-04-04T18:27:28.276Z,14.20
2019-04-04T18:32:31.933Z,14.30
2019-04-04T18:37:35.673Z,14.20
2019-04-04T18:42:51.906Z,14.20
2019-04-04T18:47:44.772Z,14.20
2019-04-04T18:52:48.538Z,14.10
2019-04-04T18:57:52.252Z,14.00
2019-04-04T19:02:56.012Z,13.90
2019-04-04T19:07:59.895Z,13.90
2019-04-04T19:13:05.700Z,13.80
2019-04-04T19:18:09.209Z,13.90
2019-04-04T19:23:12.928Z,13.80
2019-04-04T19:28:16.695Z,13.80
2019-04-04T19:33:20.604Z,13.80
2019-04-04T19:38:24.249Z,13.80
2019-04-04T19:43:28.083Z,13.70
2019-04-04T19:48:31.802Z,13.60
2019-04-04T19:53:35.546Z,13.60
2019-04-04T19:58:39.265Z,13.50
2019-04-04T20:03:42.883Z,13.60
2019-04-04T20:08:46.490Z,13.70
2019-04-04T20:13:50.160Z,13.50
2019-04-04T20:18:53.770Z,13.50
2019-04-04T20:23:57.359Z,13.70
2019-04-04T20:29:01.725Z,13.30
2019-04-04T20:34:06.189Z,13.50
2019-04-04T20:39:10.051Z,13.30
2019-04-04T20:44:13.641Z,13.40
2019-04-04T20:49:17.364Z,13.40
2019-04-04T20:54:21.036Z,13.20
2019-04-04T20:59:28.211Z,13.10
2019-04-04T21:04:31.940Z,13.10
2019-04-04T21:09:36.394Z,13.10
2019-04-04T21:14:39.973Z,13.10
2019-04-04T21:19:43.800Z,13.20
2019-04-04T21:24:47.488Z,13.20
2019-04-04T21:29:51.195Z,13.30
2019-04-04T21:34:55.011Z,13.40
2019-04-04T21:39:59.214Z,13.30
2019-04-04T21:45:02.909Z,13.40
2019-04-04T21:50:07.368Z,13.40
2019-04-04T21:55:11.091Z,13.40
2019-04-04T22:00:15.416Z,13.20
2019-04-04T22:05:19.064Z,13.30
2019-04-04T22:10:22.660Z,13.20
2019-04-04T22:15:26.339Z,13.10
2019-04-04T22:20:29.892Z,13.20
2019-04-04T22:25:33.667Z,13.10
2019-04-04T22:30:37.395Z,13.00
2019-04-04T22:35:41.048Z,13.00
2019-04-04T22:40:45.588Z,13.00
2019-04-04T22:45:49.147Z,13.00
2019-04-04T22:50:52.960Z,13.00
2019-04-04T22:55:56.600Z,13.00
2019-04-04T23:01:00.385Z,12.90
2019-04-04T23:06:04.030Z,12.90
2019-04-04T23:11:07.782Z,12.90
2019-04-04T23:16:16.080Z,12.90
2019-04-04T23:21:19.657Z,12.90
2019-04-04T23:26:23.307Z,12.80
2019-04-04T23:31:26.963Z,12.70
2019-04-04T23:36:35.215Z,12.70
2019-04-04T23:41:35.890Z,12.90
2019-04-04T23:46:39.458Z,12.90
2019-04-04T23:51:43.053Z,13.00
2019-04-04T23:56:46.713Z,13.10
